Time;durP1;ratioP1;P1;durP2;ratioP2;P2;SDS_P1;SDS_P2;PMS_P1;PMS_P2;Temp;Humidity;BMP_temperature;BMP_pressure;BME280_temperature;BME280_humidity;BME280_pressure;Samples;Min_cycle;Max_cycle;Signal;HPM_P1;HPM_P2
2023/03/07 00:00:36;;;;;;;11.40;7.60;;;;;;;-0.25;100.00;98783.93;105704;1251;74751;-47
2023/03/07 00:03:04;;;;;;;12.00;8.10;;;;;;;-0.23;100.00;98778.95;105180;1257;68903;-47
2023/03/07 00:05:32;;;;;;;15.00;8.60;;;;;;;-0.21;100.00;98775.58;105307;1257;72206;-47
2023/03/07 00:08:01;;;;;;;16.90;8.60;;;;;;;-0.19;100.00;98773.41;105157;1256;60428;-45
2023/03/07 00:10:29;;;;;;;13.70;8.80;;;;;;;-0.18;100.00;98770.20;107982;1255;59941;-45
2023/03/07 00:12:59;;;;;;;12.00;8.00;;;;;;;-0.17;100.00;98770.36;105119;1251;73594;-46
2023/03/07 00:15:28;;;;;;;11.30;8.00;;;;;;;-0.18;100.00;98766.34;105886;1257;67161;-46
2023/03/07 00:17:57;;;;;;;14.10;8.40;;;;;;;-0.21;100.00;98763.21;105268;1256;73701;-45
2023/03/07 00:20:25;;;;;;;11.40;7.40;;;;;;;-0.24;100.00;98765.05;105092;1257;61303;-47
2023/03/07 00:22:53;;;;;;;14.20;8.30;;;;;;;-0.27;100.00;98765.29;105271;1251;60532;-47
2023/03/07 00:25:21;;;;;;;12.10;7.00;;;;;;;-0.29;100.00;98760.74;105389;1254;74059;-47
2023/03/07 00:27:49;;;;;;;15.20;8.50;;;;;;;-0.30;100.00;98757.77;105379;1253;68106;-46
2023/03/07 00:30:17;;;;;;;8.90;7.40;;;;;;;-0.31;100.00;98755.13;105401;1251;73597;-47
2023/03/07 00:32:46;;;;;;;12.20;7.50;;;;;;;-0.30;100.00;98752.84;105896;1253;62821;-47
2023/03/07 00:35:14;;;;;;;7.90;6.60;;;;;;;-0.29;100.00;98750.70;105582;1254;60610;-48
2023/03/07 00:37:42;;;;;;;12.00;7.50;;;;;;;-0.28;100.00;98747.15;105294;1250;75255;-46
2023/03/07 00:40:12;;;;;;;7.70;6.90;;;;;;;-0.27;100.00;98745.19;105171;1256;66020;-44
2023/03/07 00:42:42;;;;;;;11.60;6.80;;;;;;;-0.25;100.00;98738.25;105163;1251;71757;-47
2023/03/07 00:45:10;;;;;;;9.70;6.90;;;;;;;-0.23;100.00;98736.98;105164;1251;60450;-47
2023/03/07 00:47:40;;;;;;;12.60;6.70;;;;;;;-0.21;100.00;98735.70;105801;1251;61743;-44
2023/03/07 00:50:09;;;;;;;13.00;8.30;;;;;;;-0.20;100.00;98737.27;105143;1256;73505;-44
2023/03/07 00:52:38;;;;;;;12.50;7.30;;;;;;;-0.18;100.00;98733.02;105965;1254;67465;-45
2023/03/07 00:55:07;;;;;;;15.50;10.40;;;;;;;-0.18;100.00;98730.71;106293;1251;72123;-45
2023/03/07 00:57:35;;;;;;;11.90;7.10;;;;;;;-0.18;100.00;98729.33;105404;1251;60540;-46
2023/03/07 01:00:04;;;;;;;10.50;6.90;;;;;;;-0.18;100.00;98723.33;105410;1254;60560;-43
2023/03/07 01:02:32;;;;;;;16.80;7.60;;;;;;;-0.18;100.00;98722.98;105669;1251;74575;-45
2023/03/07 01:05:03;;;;;;;11.70;7.40;;;;;;;-0.17;100.00;98716.95;105131;1251;67943;-46
2023/03/07 01:07:31;;;;;;;10.50;6.80;;;;;;;-0.15;100.00;98710.19;105246;1251;70418;-45
2023/03/07 01:10:00;;;;;;;12.20;7.40;;;;;;;-0.14;100.00;98706.63;105511;1254;60587;-47
2023/03/07 01:12:30;;;;;;;11.10;7.10;;;;;;;-0.12;100.00;98708.00;105208;1252;60584;-48
2023/03/07 01:14:58;;;;;;;14.00;7.80;;;;;;;-0.10;100.00;98701.97;105249;1251;72952;-47
2023/03/07 01:17:26;;;;;;;12.70;7.40;;;;;;;-0.08;100.00;98700.33;105476;1252;66873;-45
2023/03/07 01:19:54;;;;;;;15.10;8.30;;;;;;;-0.08;100.00;98693.45;106350;1251;72857;-46
2023/03/07 01:22:22;;;;;;;14.00;8.50;;;;;;;-0.08;100.00;98693.09;105452;1256;60572;-47
2023/03/07 01:24:53;;;;;;;13.70;7.50;;;;;;;-0.07;100.00;98690.78;105204;1251;60686;-45
2023/03/07 01:27:21;;;;;;;14.20;7.50;;;;;;;-0.07;100.00;98688.83;105223;1255;74608;-46
2023/03/07 01:29:49;;;;;;;14.50;7.90;;;;;;;-0.08;100.00;98686.91;105196;1253;66853;-45
2023/03/07 01:32:17;;;;;;;12.10;7.70;;;;;;;-0.07;100.00;98685.31;106552;1251;72909;-48
2023/03/07 01:34:45;;;;;;;11.60;7.20;;;;;;;-0.07;100.00;98679.13;105109;1252;61224;-47
2023/03/07 01:37:13;;;;;;;14.20;7.00;;;;;;;-0.05;100.00;98668.52;105441;1253;60501;-49
2023/03/07 01:39:41;;;;;;;11.90;7.30;;;;;;;-0.02;100.00;98664.59;105348;1253;71606;-45
2023/03/07 01:42:14;;;;;;;12.80;7.70;;;;;;;0.01;100.00;98664.32;106226;1251;68090;-45
2023/03/07 01:45:04;;;;;;;10.30;6.10;;;;;;;0.05;100.00;98659.84;104988;1254;71400;-45
2023/03/07 01:47:40;;;;;;;11.30;6.80;;;;;;;0.09;100.00;98662.54;105440;1253;60370;-45
2023/03/07 01:50:12;;;;;;;14.70;8.50;;;;;;;0.12;100.00;98661.08;105100;1251;60531;-44
2023/03/07 01:52:48;;;;;;;10.50;7.30;;;;;;;0.15;100.00;98657.13;105896;1255;71789;-46
2023/03/07 01:55:21;;;;;;;12.00;7.90;;;;;;;0.16;100.00;98656.40;105150;1251;68457;-47
2023/03/07 01:57:52;;;;;;;11.70;7.10;;;;;;;0.16;100.00;98652.15;105052;1251;72371;-46
2023/03/07 02:00:30;;;;;;;11.30;7.70;;;;;;;0.16;100.00;98648.83;105330;1253;60430;-47
2023/03/07 02:03:05;;;;;;;12.20;7.90;;;;;;;0.15;100.00;98644.61;105109;1251;61570;-46
2023/03/07 02:05:40;;;;;;;14.70;8.60;;;;;;;0.13;100.00;98639.01;105833;1253;73718;-49
2023/03/07 02:08:10;;;;;;;13.10;8.20;;;;;;;0.11;100.00;98635.33;105337;1253;67158;-48
2023/03/07 02:10:38;;;;;;;15.30;7.80;;;;;;;0.11;100.00;98632.86;104934;1251;71860;-46
2023/03/07 02:13:06;;;;;;;12.70;8.00;;;;;;;0.10;100.00;98636.42;105126;1251;61269;-46
2023/03/07 02:15:46;;;;;;;12.60;7.00;;;;;;;0.09;100.00;98631.49;105170;1251;60526;-45
2023/03/07 02:18:18;;;;;;;12.10;7.50;;;;;;;0.09;100.00;98633.11;104927;1254;74937;-46
2023/03/07 02:21:08;;;;;;;12.80;7.50;;;;;;;0.10;100.00;98633.60;105525;1256;68185;-46
2023/03/07 02:23:59;;;;;;;14.40;7.80;;;;;;;0.11;100.00;98630.74;106115;1253;73754;-46
2023/03/07 02:26:27;;;;;;;13.50;8.60;;;;;;;0.12;100.00;98628.60;106173;1251;60784;-46
2023/03/07 02:29:00;;;;;;;12.90;7.00;;;;;;;0.14;100.00;98622.23;105350;1251;60437;-47
2023/03/07 02:31:29;;;;;;;13.40;8.20;;;;;;;0.15;100.00;98622.73;105944;1251;72878;-47
2023/03/07 02:33:58;;;;;;;13.90;8.60;;;;;;;0.15;100.00;98623.09;105908;1254;67261;-47
2023/03/07 02:36:32;;;;;;;15.70;8.70;;;;;;;0.16;100.00;98621.30;105126;1251;73768;-46
2023/03/07 02:39:10;;;;;;;21.30;9.00;;;;;;;0.14;100.00;98619.57;105821;1256;60511;-47
2023/03/07 02:41:39;;;;;;;16.10;8.80;;;;;;;0.12;100.00;98620.33;105187;1251;61063;-47
2023/03/07 02:44:13;;;;;;;13.70;8.90;;;;;;;0.09;100.00;98615.45;105865;1251;74820;-47
2023/03/07 02:46:42;;;;;;;19.20;9.50;;;;;;;0.07;100.00;98611.12;105149;1254;68134;-47
2023/03/07 02:49:10;;;;;;;14.70;7.60;;;;;;;0.04;100.00;98609.05;104933;1251;72210;-48
2023/03/07 02:51:39;;;;;;;22.00;9.10;;;;;;;0.03;100.00;98608.02;105099;1251;60755;-47
2023/03/07 02:54:07;;;;;;;19.80;8.90;;;;;;;0.00;100.00;98601.73;105258;1254;60504;-45
2023/03/07 02:56:35;;;;;;;15.60;8.60;;;;;;;-0.01;100.00;98598.07;105436;1251;74195;-47
2023/03/07 02:59:03;;;;;;;15.30;9.20;;;;;;;-0.01;100.00;98597.20;104698;1256;67015;-46
2023/03/07 03:01:32;;;;;;;15.70;9.00;;;;;;;-0.01;100.00;98596.48;105238;1251;70317;-49
2023/03/07 03:04:00;;;;;;;13.10;7.70;;;;;;;-0.01;100.00;98595.78;105267;1256;60419;-45
2023/03/07 03:06:28;;;;;;;15.80;8.40;;;;;;;-0.01;100.00;98597.36;105354;1251;60373;-48
2023/03/07 03:08:57;;;;;;;15.80;8.50;;;;;;;-0.01;100.00;98594.36;105487;1251;74244;-45
2023/03/07 03:11:26;;;;;;;16.10;8.70;;;;;;;-0.01;100.00;98600.53;105214;1256;66794;-48
2023/03/07 03:13:56;;;;;;;16.10;7.80;;;;;;;-0.01;100.00;98598.24;105147;1251;72693;-48
2023/03/07 03:16:24;;;;;;;12.80;7.90;;;;;;;-0.02;100.00;98596.85;105694;1257;60446;-47
2023/03/07 03:18:53;;;;;;;13.50;8.30;;;;;;;-0.02;100.00;98594.74;105573;1256;60823;-46
2023/03/07 03:21:21;;;;;;;16.80;6.40;;;;;;;-0.03;100.00;98591.05;105567;1256;73123;-48
2023/03/07 03:23:49;;;;;;;13.00;7.50;;;;;;;-0.01;100.00;98589.97;105674;1251;68436;-47
2023/03/07 03:26:17;;;;;;;15.30;6.70;;;;;;;0.01;100.00;98593.23;105301;1256;73407;-47
2023/03/07 03:28:45;;;;;;;14.10;7.20;;;;;;;0.03;100.00;98594.60;105431;1255;60527;-47
2023/03/07 03:31:14;;;;;;;11.50;7.30;;;;;;;0.06;100.00;98592.25;105923;1251;60499;-45
2023/03/07 03:33:43;;;;;;;11.10;7.20;;;;;;;0.09;100.00;98586.55;105561;1257;75345;-46
2023/03/07 03:36:14;;;;;;;14.20;7.00;;;;;;;0.10;100.00;98582.95;105584;1256;67148;-45
2023/03/07 03:38:43;;;;;;;13.10;6.90;;;;;;;0.12;100.00;98583.80;105232;1256;73004;-47
2023/03/07 03:41:14;;;;;;;12.10;7.30;;;;;;;0.14;100.00;98579.52;105300;1256;60597;-47
2023/03/07 03:43:43;;;;;;;15.20;7.50;;;;;;;0.15;100.00;98578.64;105890;1254;60606;-47
2023/03/07 03:46:11;;;;;;;12.80;6.90;;;;;;;0.16;100.00;98578.60;105132;1253;75031;-47
2023/03/07 03:48:40;;;;;;;12.10;7.00;;;;;;;0.16;100.00;98579.83;105579;1253;68831;-48
2023/03/07 03:51:13;;;;;;;11.40;5.60;;;;;;;0.18;100.00;98584.35;105815;1255;72414;-47
2023/03/07 03:53:42;;;;;;;9.60;6.30;;;;;;;0.20;100.00;98580.95;105882;1253;60479;-47
2023/03/07 03:56:15;;;;;;;11.20;6.50;;;;;;;0.23;100.00;98576.48;105099;1254;60520;-47
2023/03/07 03:58:50;;;;;;;12.00;7.40;;;;;;;0.28;100.00;98574.21;105173;1252;73741;-45
2023/03/07 04:01:18;;;;;;;;;;;;;;;0.32;100.00;98577.64;105429;1256;65555;-47
2023/03/07 04:03:48;;;;;;;11.10;5.30;;;;;;;0.36;100.00;98579.65;105760;1254;72378;-46
2023/03/07 04:06:34;;;;;;;8.40;5.20;;;;;;;0.38;100.00;98576.41;105334;1256;60463;-49
2023/03/07 04:09:12;;;;;;;9.40;5.70;;;;;;;0.41;100.00;98577.06;105243;1254;60417;-52
2023/03/07 04:11:44;;;;;;;11.80;5.90;;;;;;;0.43;100.00;98573.66;107621;1255;72873;-47
2023/03/07 04:14:12;;;;;;;11.20;5.40;;;;;;;0.45;100.00;98571.48;106185;1256;68183;-48
2023/03/07 04:16:40;;;;;;;10.90;5.40;;;;;;;0.47;100.00;98571.08;105196;1256;73635;-48
2023/03/07 04:19:11;;;;;;;10.80;5.50;;;;;;;0.49;100.00;98566.45;106261;1256;62333;-46
2023/03/07 04:21:40;;;;;;;8.40;4.60;;;;;;;0.52;100.00;98568.65;105628;1253;62010;-46
2023/03/07 04:24:11;;;;;;;9.90;4.60;;;;;;;0.55;100.00;98568.90;105353;1256;74056;-48
2023/03/07 04:26:40;;;;;;;6.90;4.80;;;;;;;0.58;100.00;98560.91;105422;1257;67162;-47
2023/03/07 04:29:09;;;;;;;6.00;3.90;;;;;;;0.61;100.00;98558.84;105622;1254;72234;-48
2023/03/07 04:31:43;;;;;;;9.10;4.80;;;;;;;0.65;100.00;98563.52;105932;1254;60533;-49
2023/03/07 04:34:11;;;;;;;11.00;6.10;;;;;;;0.69;100.00;98558.99;105323;1254;60504;-47
2023/03/07 04:36:39;;;;;;;7.40;4.90;;;;;;;0.70;100.00;98561.42;105668;1254;73038;-47
2023/03/07 04:39:08;;;;;;;8.80;5.40;;;;;;;0.72;100.00;98564.73;105349;1255;68130;-47
2023/03/07 04:41:36;;;;;;;8.40;5.00;;;;;;;0.73;100.00;98558.70;105191;1251;71024;-48
2023/03/07 04:44:09;;;;;;;12.40;5.00;;;;;;;0.75;100.00;98553.91;105214;1256;60412;-47
2023/03/07 04:46:37;;;;;;;8.10;4.90;;;;;;;0.76;100.00;98550.16;104930;1256;61892;-47
2023/03/07 04:49:05;;;;;;;5.60;4.10;;;;;;;0.77;100.00;98551.89;105838;1255;75374;-46
2023/03/07 04:51:33;;;;;;;8.10;4.60;;;;;;;0.79;100.00;98544.41;105098;1256;68539;-45
2023/03/07 04:54:02;;;;;;;6.60;4.40;;;;;;;0.81;100.00;98538.19;105337;1254;72863;-46
2023/03/07 04:56:31;;;;;;;7.50;4.40;;;;;;;0.83;100.00;98533.19;105357;1255;60366;-44
2023/03/07 04:59:00;;;;;;;9.80;5.30;;;;;;;0.84;100.00;98528.04;105307;1251;61482;-46
2023/03/07 05:01:28;;;;;;;9.10;5.70;;;;;;;0.86;100.00;98531.66;105173;1256;73119;-45
2023/03/07 05:03:57;;;;;;;12.20;5.70;;;;;;;0.88;100.00;98529.50;105203;1251;67301;-48
2023/03/07 05:06:26;;;;;;;6.70;4.40;;;;;;;0.89;100.00;98539.73;105677;1256;71571;-45
2023/03/07 05:08:54;;;;;;;8.00;4.80;;;;;;;0.88;100.00;98539.02;105163;1251;62125;-46
2023/03/07 05:11:22;;;;;;;5.40;4.10;;;;;;;0.89;100.00;98543.96;105637;1257;60510;-47
2023/03/07 05:13:53;;;;;;;8.00;5.00;;;;;;;0.90;100.00;98544.27;105600;1255;71568;-44
2023/03/07 05:16:22;;;;;;;11.10;6.70;;;;;;;0.91;100.00;98548.48;105325;1256;67243;-46
2023/03/07 05:18:50;;;;;;;9.30;5.20;;;;;;;0.93;100.00;98546.67;106379;1254;73861;-46
2023/03/07 05:21:19;;;;;;;8.00;5.00;;;;;;;0.96;100.00;98546.57;105405;1256;61121;-43
2023/03/07 05:23:49;;;;;;;11.10;5.60;;;;;;;1.00;100.00;98546.83;105133;1251;60859;-46
2023/03/07 05:26:19;;;;;;;7.80;4.70;;;;;;;1.03;100.00;98550.06;105190;1253;73788;-47
2023/03/07 05:28:48;;;;;;;10.30;4.90;;;;;;;1.07;100.00;98552.61;104937;1251;68171;-47
2023/03/07 05:31:16;;;;;;;10.40;5.20;;;;;;;1.09;100.00;98555.02;105165;1253;72552;-43
2023/03/07 05:33:46;;;;;;;9.00;5.70;;;;;;;1.12;100.00;98556.34;104988;1256;60411;-46
2023/03/07 05:36:18;;;;;;;12.00;5.30;;;;;;;1.13;100.00;98557.54;105082;1257;61995;-45
2023/03/07 05:38:47;;;;;;;9.10;5.60;;;;;;;1.14;100.00;98559.81;105025;1251;73993;-47
2023/03/07 05:41:16;;;;;;;7.70;5.50;;;;;;;1.15;100.00;98560.33;105595;1251;68125;-48
2023/03/07 05:43:45;;;;;;;11.00;5.70;;;;;;;1.14;100.00;98562.83;105076;1257;72998;-47
2023/03/07 05:46:14;;;;;;;9.70;5.20;;;;;;;1.12;100.00;98563.41;107621;1256;60766;-48
2023/03/07 05:48:42;;;;;;;10.50;6.00;;;;;;;1.10;100.00;98564.02;105352;1253;60451;-48
2023/03/07 05:51:10;;;;;;;11.10;4.80;;;;;;;1.07;100.00;98559.84;105219;1256;112800;-47
2023/03/07 05:54:40;;;;;;;10.30;6.00;;;;;;;1.02;100.00;98571.48;102111;1291;602501;-45
2023/03/07 05:57:09;;;;;;;7.00;5.10;;;;;;;1.00;100.00;98573.14;104868;1268;59155;-44
2023/03/07 05:59:38;;;;;;;10.70;5.50;;;;;;;1.00;100.00;98571.91;105260;1263;60347;-44
2023/03/07 06:02:06;;;;;;;11.60;7.10;;;;;;;0.98;100.00;98571.05;104690;1262;71628;-47
2023/03/07 06:04:35;;;;;;;8.30;4.50;;;;;;;0.98;100.00;98570.53;104632;1265;67915;-49
2023/03/07 06:07:04;;;;;;;6.60;4.90;;;;;;;0.98;100.00;98572.66;105512;1266;72042;-45
2023/03/07 06:09:35;;;;;;;9.30;4.20;;;;;;;0.97;100.00;98575.16;104777;1260;60170;-48
2023/03/07 06:12:03;;;;;;;5.90;4.30;;;;;;;0.98;100.00;98574.61;104649;1259;60056;-48
2023/03/07 06:14:36;;;;;;;9.90;4.70;;;;;;;0.99;100.00;98577.92;104538;1265;73511;-47
2023/03/07 06:17:05;;;;;;;7.00;4.90;;;;;;;0.99;100.00;98576.15;104537;1259;66202;-48
2023/03/07 06:19:34;;;;;;;8.00;5.30;;;;;;;1.01;100.00;98578.41;105250;1262;74383;-48
2023/03/07 06:22:02;;;;;;;9.40;5.30;;;;;;;1.02;100.00;98576.79;104773;1264;59505;-47
2023/03/07 06:24:31;;;;;;;9.10;4.50;;;;;;;1.03;100.00;98572.32;104623;1259;59643;-47
2023/03/07 06:27:00;;;;;;;7.90;4.50;;;;;;;1.05;100.00;98573.84;105119;1262;73300;-48
2023/03/07 06:29:28;;;;;;;6.60;4.30;;;;;;;1.09;100.00;98570.92;104707;1263;65641;-46
2023/03/07 06:31:57;;;;;;;8.10;3.90;;;;;;;1.12;100.00;98569.75;108544;1259;71672;-46
2023/03/07 06:34:25;;;;;;;5.80;3.80;;;;;;;1.17;100.00;98568.04;108738;1261;58690;-47
2023/03/07 06:36:53;;;;;;;6.10;3.80;;;;;;;1.22;100.00;98565.77;108630;1259;58168;-47
2023/03/07 06:39:21;;;;;;;5.70;3.60;;;;;;;1.26;100.00;98560.17;108317;1259;73096;-46
2023/03/07 06:41:51;;;;;;;7.40;4.40;;;;;;;1.31;100.00;98563.02;104366;1262;67046;-49
2023/03/07 06:44:19;;;;;;;8.30;3.80;;;;;;;1.35;100.00;98560.09;108417;1259;72831;-49
2023/03/07 06:46:50;;;;;;;9.30;5.10;;;;;;;1.39;100.00;98556.60;104319;1264;61013;-47
2023/03/07 06:49:19;;;;;;;5.70;3.60;;;;;;;1.43;100.00;98553.48;104533;1263;59648;-47
2023/03/07 06:51:48;;;;;;;8.30;4.00;;;;;;;1.47;100.00;98549.26;104411;1262;73085;-47
2023/03/07 06:54:16;;;;;;;8.40;4.70;;;;;;;1.52;100.00;98546.98;104530;1263;69014;-48
2023/03/07 06:56:44;;;;;;;6.80;5.20;;;;;;;1.57;100.00;98540.66;105055;1261;73235;-51
2023/03/07 06:59:15;;;;;;;10.10;5.70;;;;;;;1.61;100.00;98538.43;104329;1262;59693;-50
2023/03/07 07:01:43;;;;;;;8.90;6.70;;;;;;;1.61;100.00;98538.23;104848;1261;60377;-49
2023/03/07 07:04:12;;;;;;;9.20;5.60;;;;;;;1.63;100.00;98538.33;105195;1262;74356;-46
2023/03/07 07:06:43;;;;;;;5.90;4.20;;;;;;;1.65;100.00;98539.52;104617;1263;68596;-51
2023/03/07 07:09:13;;;;;;;6.70;4.80;;;;;;;1.67;100.00;98540.00;104518;1261;71141;-50
2023/03/07 07:11:41;;;;;;;8.30;4.70;;;;;;;1.67;100.00;98533.27;107032;1265;60037;-49
2023/03/07 07:14:12;;;;;;;10.90;6.40;;;;;;;1.66;100.00;98535.77;104295;1267;59618;-48
2023/03/07 07:16:41;;;;;;;8.60;5.70;;;;;;;1.66;100.00;98532.58;105227;1264;71367;-51
2023/03/07 07:19:09;;;;;;;7.90;4.80;;;;;;;1.67;100.00;98532.04;104872;1265;66341;-48
2023/03/07 07:21:37;;;;;;;7.30;4.10;;;;;;;1.67;100.00;98532.55;104842;1263;71999;-50
2023/03/07 07:24:06;;;;;;;7.90;5.30;;;;;;;1.67;100.00;98535.04;104125;1262;60193;-47
2023/03/07 07:26:35;;;;;;;7.80;6.00;;;;;;;1.66;100.00;98530.98;104659;1268;60520;-48
2023/03/07 07:29:03;;;;;;;8.10;5.10;;;;;;;1.65;100.00;98535.29;104600;1262;72177;-48
2023/03/07 07:31:31;;;;;;;8.60;4.30;;;;;;;1.64;100.00;98533.35;105356;1265;67863;-47
2023/03/07 07:33:59;;;;;;;5.30;4.30;;;;;;;1.66;100.00;98530.48;104470;1263;74505;-49
2023/03/07 07:36:29;;;;;;;7.40;5.10;;;;;;;1.69;100.00;98531.11;104532;1265;59902;-47
2023/03/07 07:38:58;;;;;;;4.10;3.40;;;;;;;1.72;100.00;98529.20;104448;1263;59583;-47
2023/03/07 07:41:26;;;;;;;6.90;4.50;;;;;;;1.75;100.00;98528.95;104366;1262;71995;-48
2023/03/07 07:43:55;;;;;;;7.20;5.60;;;;;;;1.76;100.00;98530.67;104467;1263;68589;-50
2023/03/07 07:46:33;;;;;;;6.00;4.20;;;;;;;1.75;100.00;98538.14;104440;1261;72504;-50
2023/03/07 07:49:02;;;;;;;9.50;4.60;;;;;;;1.74;100.00;98539.95;106212;1253;59702;-46
2023/03/07 07:51:30;;;;;;;7.90;4.70;;;;;;;1.74;100.00;98545.23;105254;1257;60950;-49
2023/03/07 07:53:59;;;;;;;6.40;4.60;;;;;;;1.76;100.00;98546.96;105380;1253;72612;-48
2023/03/07 07:56:28;;;;;;;7.70;5.00;;;;;;;1.77;100.00;98543.73;105192;1254;65756;-48
2023/03/07 07:58:56;;;;;;;6.70;4.80;;;;;;;1.78;100.00;98546.87;105028;1253;71412;-47
2023/03/07 08:01:24;;;;;;;6.50;4.10;;;;;;;1.81;100.00;98545.70;104891;1253;61278;-48
2023/03/07 08:03:52;;;;;;;4.70;4.30;;;;;;;1.84;100.00;98549.69;105208;1257;59705;-48
2023/03/07 08:06:22;;;;;;;6.60;3.90;;;;;;;1.85;100.00;98549.83;105274;1253;73309;-46
2023/03/07 08:08:51;;;;;;;4.60;3.80;;;;;;;1.88;100.00;98548.13;105379;1259;67634;-47
2023/03/07 08:11:19;;;;;;;5.40;4.20;;;;;;;1.91;100.00;98543.44;105183;1254;73661;-46
2023/03/07 08:13:49;;;;;;;3.50;3.20;;;;;;;1.98;100.00;98540.73;105109;1255;60877;-45
2023/03/07 08:16:18;;;;;;;5.10;3.70;;;;;;;2.06;100.00;98537.99;105552;1253;61291;-47
2023/03/07 08:18:48;;;;;;;4.70;3.60;;;;;;;2.13;100.00;98532.10;105059;1253;74253;-50
2023/03/07 08:21:16;;;;;;;8.80;5.30;;;;;;;2.21;100.00;98532.17;105328;1259;67043;-48
2023/03/07 08:23:45;;;;;;;7.30;4.40;;;;;;;2.29;100.00;98530.50;105502;1253;71435;-47
2023/03/07 08:26:13;;;;;;;6.00;5.40;;;;;;;2.37;100.00;98530.76;105006;1257;61426;-46
2023/03/07 08:28:41;;;;;;;5.90;4.40;;;;;;;2.44;100.00;98527.83;105231;1254;59739;-47
2023/03/07 08:31:13;;;;;;;5.70;4.90;;;;;;;2.52;100.00;98525.78;104903;1252;72780;-48
2023/03/07 08:33:43;;;;;;;5.70;4.80;;;;;;;2.59;100.00;98523.73;104856;1253;66083;-48
2023/03/07 08:36:11;;;;;;;6.20;4.70;;;;;;;2.69;100.00;98512.60;104772;1259;72507;-47
2023/03/07 08:38:39;;;;;;;6.60;4.50;;;;;;;2.81;100.00;98507.54;105966;1257;60114;-46
2023/03/07 08:41:07;;;;;;;5.30;4.70;;;;;;;2.95;100.00;98509.16;105023;1256;59907;-47
2023/03/07 08:43:36;;;;;;;6.00;5.30;;;;;;;3.08;100.00;98511.50;106533;1256;72101;-47
2023/03/07 08:46:04;;;;;;;6.50;5.40;;;;;;;3.17;100.00;98513.45;105529;1253;69223;-47
2023/03/07 08:48:32;;;;;;;6.30;4.70;;;;;;;3.24;100.00;98511.21;105437;1253;71938;-47
2023/03/07 08:51:08;;;;;;;6.30;5.30;;;;;;;3.31;100.00;98512.04;105894;1254;60553;-47
2023/03/07 08:53:39;;;;;;;6.00;4.60;;;;;;;3.33;100.00;98513.55;104831;1253;60766;-46
2023/03/07 08:56:12;;;;;;;7.80;4.40;;;;;;;3.33;100.00;98512.65;105141;1258;74762;-52
2023/03/07 08:58:40;;;;;;;7.90;6.30;;;;;;;3.39;100.00;98523.25;105310;1253;66369;-46
2023/03/07 09:01:09;;;;;;;7.20;5.10;;;;;;;3.44;100.00;98522.87;105301;1253;71621;-47
2023/03/07 09:03:37;;;;;;;7.00;5.40;;;;;;;3.49;100.00;98527.98;105831;1256;62750;-50
2023/03/07 09:06:05;;;;;;;8.00;5.10;;;;;;;3.50;100.00;98525.45;105559;1253;60430;-54
2023/03/07 09:08:33;;;;;;;7.40;5.40;;;;;;;3.51;100.00;98529.34;105127;1257;73243;-53
2023/03/07 09:11:04;;;;;;;6.30;4.60;;;;;;;3.51;100.00;98528.26;105050;1256;67136;-51
2023/03/07 09:13:32;;;;;;;6.10;5.00;;;;;;;3.49;100.00;98530.66;105121;1253;71331;-54
2023/03/07 09:16:17;;;;;;;4.10;3.70;;;;;;;3.44;100.00;98532.63;105148;1256;60798;-48
2023/03/07 09:18:45;;;;;;;9.90;5.50;;;;;;;3.36;100.00;98529.22;105222;1253;60496;-49
2023/03/07 09:21:15;;;;;;;6.80;5.70;;;;;;;3.30;100.00;98532.44;105151;1255;74303;-49
2023/03/07 09:23:43;;;;;;;6.80;4.80;;;;;;;3.27;100.00;98535.77;104980;1259;69741;-50
2023/03/07 09:26:17;;;;;;;5.20;4.80;;;;;;;3.26;100.00;98536.52;104920;1255;72929;-51
2023/03/07 09:28:46;;;;;;;6.50;5.10;;;;;;;3.27;100.00;98534.35;106033;1253;61438;-52
2023/03/07 09:31:14;;;;;;;6.70;4.90;;;;;;;3.32;100.00;98537.70;105279;1253;60813;-49
2023/03/07 09:33:44;;;;;;;8.00;5.60;;;;;;;3.40;100.00;98540.23;105473;1253;73000;-48
2023/03/07 09:36:15;;;;;;;5.20;4.60;;;;;;;3.50;100.00;98540.89;105473;1257;68009;-50
2023/03/07 09:38:43;;;;;;;6.40;5.70;;;;;;;3.61;100.00;98542.75;105284;1256;71607;-51
2023/03/07 09:41:33;;;;;;;6.50;5.30;;;;;;;3.71;100.00;98546.80;105222;1253;60345;-47
2023/03/07 09:44:20;;;;;;;7.60;5.00;;;;;;;3.78;100.00;98546.52;105185;1258;60932;-46
2023/03/07 09:47:33;;;;;;;7.10;5.00;;;;;;;3.85;100.00;98545.36;104749;1253;71848;-50
2023/03/07 09:50:11;;;;;;;5.60;4.50;;;;;;;3.90;100.00;98547.65;104924;1253;68416;-50
2023/03/07 09:52:39;;;;;;;;;;;;;;;3.89;100.00;98544.68;105439;1258;72073;-48
2023/03/07 09:55:12;;;;;;;5.50;4.50;;;;;;;3.82;100.00;98545.13;105129;1253;59667;-47
2023/03/07 09:57:48;;;;;;;6.70;5.30;;;;;;;3.74;100.00;98544.90;105324;1256;59587;-49
2023/03/07 10:00:36;;;;;;;7.40;5.60;;;;;;;3.68;100.00;98539.66;105351;1253;72791;-48
2023/03/07 10:03:26;;;;;;;4.70;4.20;;;;;;;3.63;100.00;98536.48;104994;1255;66707;-47
2023/03/07 10:05:56;;;;;;;5.30;3.80;;;;;;;3.63;100.00;98539.52;105543;1256;71631;-50
2023/03/07 10:08:32;;;;;;;5.90;4.30;;;;;;;3.66;100.00;98531.39;105335;1254;60511;-48
2023/03/07 10:11:12;;;;;;;5.10;4.40;;;;;;;3.71;100.00;98524.61;105377;1253;61032;-47
2023/03/07 10:14:09;;;;;;;6.10;4.30;;;;;;;3.81;100.00;98521.20;105071;1252;74990;-49
2023/03/07 10:17:20;;;;;;;6.60;5.00;;;;;;;3.93;100.00;98512.74;105487;1256;68303;-50
2023/03/07 10:19:50;;;;;;;10.80;5.30;;;;;;;4.03;100.00;98514.95;105169;1257;71436;-48
2023/03/07 10:22:34;;;;;;;5.00;4.50;;;;;;;4.10;100.00;98516.08;105308;1257;60415;-46
2023/03/07 10:25:10;;;;;;;5.90;5.00;;;;;;;4.19;100.00;98515.02;105192;1256;60336;-52
2023/03/07 10:27:38;;;;;;;7.90;6.10;;;;;;;4.24;100.00;98513.37;104923;1259;76274;-48
2023/03/07 10:30:14;;;;;;;5.70;5.10;;;;;;;4.26;100.00;98513.26;105202;1256;66498;-45
2023/03/07 10:32:42;;;;;;;4.90;4.00;;;;;;;4.27;100.00;98508.98;105271;1252;71621;-48
2023/03/07 10:35:12;;;;;;;6.10;4.70;;;;;;;4.21;100.00;98508.55;105942;1257;62177;-45
2023/03/07 10:38:02;;;;;;;4.80;4.40;;;;;;;4.13;100.00;98505.67;105159;1257;60446;-48
2023/03/07 10:40:34;;;;;;;5.20;4.60;;;;;;;4.10;100.00;98505.98;105199;1258;72943;-48
2023/03/07 10:43:02;;;;;;;5.70;4.60;;;;;;;4.10;100.00;98500.27;105316;1255;66536;-48
2023/03/07 10:45:33;;;;;;;6.10;5.30;;;;;;;4.14;100.00;98499.59;105445;1252;72568;-49
2023/03/07 10:48:05;;;;;;;4.50;3.90;;;;;;;4.17;100.00;98498.73;105102;1259;60470;-45
2023/03/07 10:51:03;;;;;;;6.10;4.60;;;;;;;4.20;100.00;98497.21;106317;1254;60467;-47
2023/03/07 10:53:33;;;;;;;5.30;4.40;;;;;;;4.18;100.00;98493.89;104977;1260;74176;-48
2023/03/07 10:56:14;;;;;;;8.10;6.20;;;;;;;4.20;100.00;98490.63;105624;1259;69066;-50
2023/03/07 10:59:02;;;;;;;6.20;5.30;;;;;;;4.23;100.00;98492.46;108964;1253;74520;-50
2023/03/07 11:01:31;;;;;;;8.00;5.70;;;;;;;4.25;100.00;98490.11;105979;1266;60450;-49
2023/03/07 11:04:05;;;;;;;8.40;5.80;;;;;;;4.27;100.00;98485.38;105350;1253;60551;-52
2023/03/07 11:06:36;;;;;;;6.40;4.70;;;;;;;4.29;100.00;98488.83;104974;1254;71874;-49
2023/03/07 11:09:31;;;;;;;7.20;3.70;;;;;;;4.29;100.00;98485.09;109138;1253;66996;-46
2023/03/07 11:12:03;;;;;;;7.10;4.60;;;;;;;4.29;100.00;98489.02;105694;1253;71363;-49
2023/03/07 11:14:53;;;;;;;5.90;5.30;;;;;;;4.32;100.00;98481.23;105110;1255;62163;-49
2023/03/07 11:17:26;;;;;;;5.40;4.90;;;;;;;4.39;100.00;98482.38;105862;1255;60881;-48
2023/03/07 11:19:55;;;;;;;5.20;4.70;;;;;;;4.43;100.00;98481.98;105075;1253;73904;-52
2023/03/07 11:22:34;;;;;;;6.90;5.40;;;;;;;4.48;100.00;98480.87;104939;1257;67327;-51
2023/03/07 11:25:24;;;;;;;5.80;5.30;;;;;;;4.52;100.00;98479.08;107036;1256;73921;-44
2023/03/07 11:27:56;;;;;;;7.20;5.80;;;;;;;4.55;100.00;98473.66;104975;1253;60510;-47
2023/03/07 11:30:37;;;;;;;5.40;4.80;;;;;;;4.56;100.00;98472.73;104792;1257;60543;-52
2023/03/07 11:33:21;;;;;;;7.70;4.70;;;;;;;4.60;100.00;98470.98;104892;1253;72772;-48
2023/03/07 11:36:02;;;;;;;5.40;5.00;;;;;;;4.69;100.00;98473.19;104991;1256;67001;-49
2023/03/07 11:38:40;;;;;;;5.30;4.80;;;;;;;4.82;100.00;98469.79;105786;1257;71475;-48
2023/03/07 11:41:18;;;;;;;5.30;4.80;;;;;;;4.89;100.00;98469.60;104947;1256;60410;-50